sensor_id;sensor_type;location;lat;lon;timestamp;P1;durP1;ratioP1;P2;durP2;ratioP2
9819;SDS011;4949;48.482;9.206;2023-03-01T00:03:00;21.07;;;17.17;;
9819;SDS011;4949;48.482;9.206;2023-03-01T00:08:03;22.40;;;16.20;;
9819;SDS011;4949;48.482;9.206;2023-03-01T00:13:09;19.30;;;15.20;;
9819;SDS011;4949;48.482;9.206;2023-03-01T00:18:12;21.60;;;15.43;;
9819;SDS011;4949;48.482;9.206;2023-03-01T00:23:12;18.50;;;15.40;;
9819;SDS011;4949;48.482;9.206;2023-03-01T00:28:13;21.27;;;15.17;;
9819;SDS011;4949;48.482;9.206;2023-03-01T00:33:19;19.33;;;15.23;;
9819;SDS011;4949;48.482;9.206;2023-03-01T00:38:20;20.90;;;15.13;;
9819;SDS011;4949;48.482;9.206;2023-03-01T00:43:23;16.50;;;14.40;;
9819;SDS011;4949;48.482;9.206;2023-03-01T00:48:23;18.10;;;14.47;;
9819;SDS011;4949;48.482;9.206;2023-03-01T00:53:24;22.70;;;15.47;;
9819;SDS011;4949;48.482;9.206;2023-03-01T00:58:25;18.33;;;15.60;;
9819;SDS011;4949;48.482;9.206;2023-03-01T01:03:28;19.63;;;15.27;;
9819;SDS011;4949;48.482;9.206;2023-03-01T01:08:29;18.43;;;14.33;;
9819;SDS011;4949;48.482;9.206;2023-03-01T01:13:29;18.20;;;15.40;;
9819;SDS011;4949;48.482;9.206;2023-03-01T01:18:35;20.30;;;14.80;;
9819;SDS011;4949;48.482;9.206;2023-03-01T01:23:36;16.83;;;14.43;;
9819;SDS011;4949;48.482;9.206;2023-03-01T01:28:39;19.77;;;14.97;;
9819;SDS011;4949;48.482;9.206;2023-03-01T01:33:42;15.50;;;13.33;;
9819;SDS011;4949;48.482;9.206;2023-03-01T01:38:47;18.13;;;13.73;;
9819;SDS011;4949;48.482;9.206;2023-03-01T01:49:32;22.23;;;15.47;;
9819;SDS011;4949;48.482;9.206;2023-03-01T02:00:09;23.57;;;16.10;;
9819;SDS011;4949;48.482;9.206;2023-03-01T02:05:33;19.27;;;14.10;;
9819;SDS011;4949;48.482;9.206;2023-03-01T02:10:48;17.50;;;15.50;;
9819;SDS011;4949;48.482;9.206;2023-03-01T02:15:50;19.47;;;15.30;;
9819;SDS011;4949;48.482;9.206;2023-03-01T02:30:54;18.17;;;15.07;;
9819;SDS011;4949;48.482;9.206;2023-03-01T02:36:21;20.90;;;16.03;;
9819;SDS011;4949;48.482;9.206;2023-03-01T02:41:30;22.83;;;15.43;;
9819;SDS011;4949;48.482;9.206;2023-03-01T02:46:41;19.50;;;16.00;;
9819;SDS011;4949;48.482;9.206;2023-03-01T02:57:00;23.90;;;17.07;;
9819;SDS011;4949;48.482;9.206;2023-03-01T03:02:02;17.40;;;14.33;;
9819;SDS011;4949;48.482;9.206;2023-03-01T03:07:09;18.60;;;15.17;;
9819;SDS011;4949;48.482;9.206;2023-03-01T03:12:10;18.83;;;15.53;;
9819;SDS011;4949;48.482;9.206;2023-03-01T03:17:13;16.47;;;13.77;;
9819;SDS011;4949;48.482;9.206;2023-03-01T03:22:14;20.87;;;15.50;;
9819;SDS011;4949;48.482;9.206;2023-03-01T03:27:17;18.90;;;15.77;;
9819;SDS011;4949;48.482;9.206;2023-03-01T03:32:18;21.90;;;16.03;;
9819;SDS011;4949;48.482;9.206;2023-03-01T03:37:21;15.90;;;13.10;;
9819;SDS011;4949;48.482;9.206;2023-03-01T03:42:51;16.93;;;14.73;;
9819;SDS011;4949;48.482;9.206;2023-03-01T03:47:52;23.50;;;16.57;;
9819;SDS011;4949;48.482;9.206;2023-03-01T03:52:54;20.10;;;16.03;;
9819;SDS011;4949;48.482;9.206;2023-03-01T03:57:57;23.63;;;16.37;;
9819;SDS011;4949;48.482;9.206;2023-03-01T04:03:06;20.00;;;15.07;;
9819;SDS011;4949;48.482;9.206;2023-03-01T04:08:08;19.10;;;15.03;;
9819;SDS011;4949;48.482;9.206;2023-03-01T04:13:12;19.83;;;15.60;;
9819;SDS011;4949;48.482;9.206;2023-03-01T04:18:16;18.50;;;14.37;;
9819;SDS011;4949;48.482;9.206;2023-03-01T04:23:22;19.97;;;16.00;;
9819;SDS011;4949;48.482;9.206;2023-03-01T04:28:30;20.67;;;15.30;;
9819;SDS011;4949;48.482;9.206;2023-03-01T04:33:34;21.37;;;15.37;;
9819;SDS011;4949;48.482;9.206;2023-03-01T04:38:37;19.00;;;15.90;;
9819;SDS011;4949;48.482;9.206;2023-03-01T04:43:39;20.60;;;16.30;;
9819;SDS011;4949;48.482;9.206;2023-03-01T04:48:42;20.30;;;15.10;;
9819;SDS011;4949;48.482;9.206;2023-03-01T04:53:47;19.90;;;15.27;;
9819;SDS011;4949;48.482;9.206;2023-03-01T04:58:53;20.70;;;15.43;;
9819;SDS011;4949;48.482;9.206;2023-03-01T05:03:57;20.80;;;15.30;;
9819;SDS011;4949;48.482;9.206;2023-03-01T05:09:02;19.80;;;15.30;;
9819;SDS011;4949;48.482;9.206;2023-03-01T05:14:06;20.03;;;15.90;;
9819;SDS011;4949;48.482;9.206;2023-03-01T05:19:11;18.53;;;15.50;;
9819;SDS011;4949;48.482;9.206;2023-03-01T05:24:15;22.60;;;16.70;;
9819;SDS011;4949;48.482;9.206;2023-03-01T05:29:15;22.53;;;16.53;;
9819;SDS011;4949;48.482;9.206;2023-03-01T05:34:16;22.80;;;15.87;;
9819;SDS011;4949;48.482;9.206;2023-03-01T05:39:17;22.27;;;16.40;;
9819;SDS011;4949;48.482;9.206;2023-03-01T05:44:22;21.50;;;15.00;;
9819;SDS011;4949;48.482;9.206;2023-03-01T05:49:25;20.47;;;16.23;;
9819;SDS011;4949;48.482;9.206;2023-03-01T05:54:30;23.63;;;17.87;;
9819;SDS011;4949;48.482;9.206;2023-03-01T05:59:35;21.50;;;16.87;;
9819;SDS011;4949;48.482;9.206;2023-03-01T06:04:36;21.27;;;16.43;;
9819;SDS011;4949;48.482;9.206;2023-03-01T06:09:37;24.97;;;16.10;;
9819;SDS011;4949;48.482;9.206;2023-03-01T06:14:38;25.60;;;16.07;;
9819;SDS011;4949;48.482;9.206;2023-03-01T06:19:43;25.00;;;16.03;;
9819;SDS011;4949;48.482;9.206;2023-03-01T06:24:44;22.33;;;17.43;;
9819;SDS011;4949;48.482;9.206;2023-03-01T06:29:50;23.43;;;18.43;;
9819;SDS011;4949;48.482;9.206;2023-03-01T06:34:51;22.37;;;17.20;;
9819;SDS011;4949;48.482;9.206;2023-03-01T06:39:51;22.60;;;16.63;;
9819;SDS011;4949;48.482;9.206;2023-03-01T06:44:52;23.33;;;17.23;;
9819;SDS011;4949;48.482;9.206;2023-03-01T06:49:55;24.60;;;18.27;;
9819;SDS011;4949;48.482;9.206;2023-03-01T06:54:56;19.60;;;17.43;;
9819;SDS011;4949;48.482;9.206;2023-03-01T07:00:04;23.40;;;17.00;;
9819;SDS011;4949;48.482;9.206;2023-03-01T07:05:08;21.63;;;17.13;;
9819;SDS011;4949;48.482;9.206;2023-03-01T07:10:14;24.87;;;19.23;;
9819;SDS011;4949;48.482;9.206;2023-03-01T07:15:14;22.37;;;17.93;;
9819;SDS011;4949;48.482;9.206;2023-03-01T07:20:15;24.50;;;18.43;;
9819;SDS011;4949;48.482;9.206;2023-03-01T07:25:24;21.63;;;18.30;;
9819;SDS011;4949;48.482;9.206;2023-03-01T07:30:27;27.77;;;18.67;;
9819;SDS011;4949;48.482;9.206;2023-03-01T07:35:28;22.20;;;17.50;;
9819;SDS011;4949;48.482;9.206;2023-03-01T07:40:29;29.47;;;19.70;;
9819;SDS011;4949;48.482;9.206;2023-03-01T07:45:34;25.43;;;17.10;;
9819;SDS011;4949;48.482;9.206;2023-03-01T07:50:35;24.43;;;17.10;;
9819;SDS011;4949;48.482;9.206;2023-03-01T07:55:38;23.17;;;18.20;;
9819;SDS011;4949;48.482;9.206;2023-03-01T08:00:39;24.07;;;17.83;;
9819;SDS011;4949;48.482;9.206;2023-03-01T08:05:42;20.60;;;17.53;;
9819;SDS011;4949;48.482;9.206;2023-03-01T08:10:43;26.60;;;18.97;;
9819;SDS011;4949;48.482;9.206;2023-03-01T08:15:43;24.33;;;16.70;;
9819;SDS011;4949;48.482;9.206;2023-03-01T08:20:47;20.43;;;17.37;;
9819;SDS011;4949;48.482;9.206;2023-03-01T08:25:50;24.30;;;18.10;;
9819;SDS011;4949;48.482;9.206;2023-03-01T08:30:53;26.47;;;18.53;;
9819;SDS011;4949;48.482;9.206;2023-03-01T08:36:04;28.13;;;17.70;;
9819;SDS011;4949;48.482;9.206;2023-03-01T08:41:06;22.40;;;17.47;;
9819;SDS011;4949;48.482;9.206;2023-03-01T08:46:07;22.77;;;16.10;;
9819;SDS011;4949;48.482;9.206;2023-03-01T08:56:15;23.03;;;17.80;;
9819;SDS011;4949;48.482;9.206;2023-03-01T09:01:18;25.43;;;18.03;;
9819;SDS011;4949;48.482;9.206;2023-03-01T09:06:19;26.90;;;19.03;;
9819;SDS011;4949;48.482;9.206;2023-03-01T09:11:22;20.10;;;17.07;;
9819;SDS011;4949;48.482;9.206;2023-03-01T09:16:31;24.27;;;18.07;;
9819;SDS011;4949;48.482;9.206;2023-03-01T09:21:35;23.10;;;18.07;;
9819;SDS011;4949;48.482;9.206;2023-03-01T09:26:40;26.40;;;17.67;;
9819;SDS011;4949;48.482;9.206;2023-03-01T09:31:41;23.50;;;18.53;;
9819;SDS011;4949;48.482;9.206;2023-03-01T09:36:43;23.27;;;18.03;;
9819;SDS011;4949;48.482;9.206;2023-03-01T09:46:54;23.90;;;17.90;;
9819;SDS011;4949;48.482;9.206;2023-03-01T09:57:30;23.60;;;16.97;;
9819;SDS011;4949;48.482;9.206;2023-03-01T10:02:43;24.63;;;19.17;;
9819;SDS011;4949;48.482;9.206;2023-03-01T10:18:41;19.97;;;16.13;;
9819;SDS011;4949;48.482;9.206;2023-03-01T10:23:43;22.70;;;16.53;;
9819;SDS011;4949;48.482;9.206;2023-03-01T10:33:48;18.90;;;15.90;;
9819;SDS011;4949;48.482;9.206;2023-03-01T10:38:55;18.50;;;14.20;;
9819;SDS011;4949;48.482;9.206;2023-03-01T10:44:01;20.10;;;16.47;;
9819;SDS011;4949;48.482;9.206;2023-03-01T10:54:31;20.30;;;16.03;;
9819;SDS011;4949;48.482;9.206;2023-03-01T10:59:37;19.70;;;16.17;;
9819;SDS011;4949;48.482;9.206;2023-03-01T11:04:38;18.63;;;15.83;;
9819;SDS011;4949;48.482;9.206;2023-03-01T11:09:39;19.60;;;16.37;;
9819;SDS011;4949;48.482;9.206;2023-03-01T11:14:45;19.93;;;16.00;;
9819;SDS011;4949;48.482;9.206;2023-03-01T11:25:14;18.07;;;15.00;;
9819;SDS011;4949;48.482;9.206;2023-03-01T11:30:27;17.03;;;14.77;;
9819;SDS011;4949;48.482;9.206;2023-03-01T11:35:35;16.33;;;14.20;;
9819;SDS011;4949;48.482;9.206;2023-03-01T12:08:34;17.40;;;14.83;;
9819;SDS011;4949;48.482;9.206;2023-03-01T12:25:33;15.03;;;13.20;;
9819;SDS011;4949;48.482;9.206;2023-03-01T12:36:10;15.97;;;14.07;;
9819;SDS011;4949;48.482;9.206;2023-03-01T12:52:55;13.83;;;12.33;;
9819;SDS011;4949;48.482;9.206;2023-03-01T13:09:05;14.53;;;13.07;;
9819;SDS011;4949;48.482;9.206;2023-03-01T13:19:39;14.13;;;12.73;;
9819;SDS011;4949;48.482;9.206;2023-03-01T13:25:11;14.80;;;13.30;;
9819;SDS011;4949;48.482;9.206;2023-03-01T13:35:46;16.70;;;14.97;;
9819;SDS011;4949;48.482;9.206;2023-03-01T13:45:50;14.00;;;12.50;;
9819;SDS011;4949;48.482;9.206;2023-03-01T13:50:58;15.00;;;13.50;;
9819;SDS011;4949;48.482;9.206;2023-03-01T13:56:07;17.30;;;15.50;;
9819;SDS011;4949;48.482;9.206;2023-03-01T14:01:20;17.13;;;15.57;;
9819;SDS011;4949;48.482;9.206;2023-03-01T14:06:25;18.87;;;14.80;;
9819;SDS011;4949;48.482;9.206;2023-03-01T14:27:21;17.10;;;15.30;;
9819;SDS011;4949;48.482;9.206;2023-03-01T14:32:28;20.30;;;15.70;;
9819;SDS011;4949;48.482;9.206;2023-03-01T14:37:32;18.43;;;15.90;;
9819;SDS011;4949;48.482;9.206;2023-03-01T14:42:35;17.30;;;15.20;;
9819;SDS011;4949;48.482;9.206;2023-03-01T14:47:36;18.10;;;16.30;;
9819;SDS011;4949;48.482;9.206;2023-03-01T14:52:41;16.30;;;14.60;;
9819;SDS011;4949;48.482;9.206;2023-03-01T14:57:49;16.83;;;15.00;;
9819;SDS011;4949;48.482;9.206;2023-03-01T15:02:53;15.30;;;13.77;;
9819;SDS011;4949;48.482;9.206;2023-03-01T15:08:00;15.47;;;13.97;;
9819;SDS011;4949;48.482;9.206;2023-03-01T15:13:12;15.97;;;14.30;;
9819;SDS011;4949;48.482;9.206;2023-03-01T15:18:28;15.83;;;14.17;;
9819;SDS011;4949;48.482;9.206;2023-03-01T15:23:32;16.80;;;15.13;;
9819;SDS011;4949;48.482;9.206;2023-03-01T15:28:41;17.53;;;15.43;;
9819;SDS011;4949;48.482;9.206;2023-03-01T15:33:50;18.00;;;15.30;;
9819;SDS011;4949;48.482;9.206;2023-03-01T15:38:57;17.33;;;14.77;;
9819;SDS011;4949;48.482;9.206;2023-03-01T15:44:23;18.80;;;15.83;;
9819;SDS011;4949;48.482;9.206;2023-03-01T15:49:39;20.43;;;15.63;;
9819;SDS011;4949;48.482;9.206;2023-03-01T15:54:42;17.63;;;15.60;;
9819;SDS011;4949;48.482;9.206;2023-03-01T15:59:43;26.57;;;16.90;;
9819;SDS011;4949;48.482;9.206;2023-03-01T16:04:49;17.57;;;15.77;;
9819;SDS011;4949;48.482;9.206;2023-03-01T16:09:56;17.07;;;15.00;;
9819;SDS011;4949;48.482;9.206;2023-03-01T16:14:59;17.27;;;15.30;;
9819;SDS011;4949;48.482;9.206;2023-03-01T16:20:00;20.30;;;16.37;;
9819;SDS011;4949;48.482;9.206;2023-03-01T16:25:01;19.20;;;16.20;;
9819;SDS011;4949;48.482;9.206;2023-03-01T16:30:03;18.10;;;16.20;;
9819;SDS011;4949;48.482;9.206;2023-03-01T16:35:06;17.37;;;15.30;;
9819;SDS011;4949;48.482;9.206;2023-03-01T16:40:16;18.50;;;16.20;;
9819;SDS011;4949;48.482;9.206;2023-03-01T16:45:34;17.67;;;15.10;;
9819;SDS011;4949;48.482;9.206;2023-03-01T16:50:35;17.63;;;15.87;;
9819;SDS011;4949;48.482;9.206;2023-03-01T16:55:36;20.93;;;16.90;;
9819;SDS011;4949;48.482;9.206;2023-03-01T17:00:45;21.33;;;18.00;;
9819;SDS011;4949;48.482;9.206;2023-03-01T17:05:46;19.60;;;16.30;;
9819;SDS011;4949;48.482;9.206;2023-03-01T17:10:49;20.03;;;16.40;;
9819;SDS011;4949;48.482;9.206;2023-03-01T17:15:50;18.73;;;16.03;;
9819;SDS011;4949;48.482;9.206;2023-03-01T17:20:50;20.30;;;15.60;;
9819;SDS011;4949;48.482;9.206;2023-03-01T17:25:51;19.77;;;16.30;;
9819;SDS011;4949;48.482;9.206;2023-03-01T17:30:55;20.07;;;17.17;;
9819;SDS011;4949;48.482;9.206;2023-03-01T17:35:56;18.47;;;14.57;;
9819;SDS011;4949;48.482;9.206;2023-03-01T17:40:59;18.73;;;15.37;;
9819;SDS011;4949;48.482;9.206;2023-03-01T17:46:02;19.03;;;15.40;;
9819;SDS011;4949;48.482;9.206;2023-03-01T17:51:08;19.43;;;17.00;;
9819;SDS011;4949;48.482;9.206;2023-03-01T17:56:10;20.70;;;16.20;;
9819;SDS011;4949;48.482;9.206;2023-03-01T18:01:12;20.10;;;16.13;;
9819;SDS011;4949;48.482;9.206;2023-03-01T18:06:23;19.90;;;16.67;;
9819;SDS011;4949;48.482;9.206;2023-03-01T18:11:25;20.17;;;17.80;;
9819;SDS011;4949;48.482;9.206;2023-03-01T18:16:29;21.40;;;17.17;;
9819;SDS011;4949;48.482;9.206;2023-03-01T18:21:32;22.00;;;19.60;;
9819;SDS011;4949;48.482;9.206;2023-03-01T18:26:36;22.07;;;17.43;;
9819;SDS011;4949;48.482;9.206;2023-03-01T18:31:42;26.33;;;20.60;;
9819;SDS011;4949;48.482;9.206;2023-03-01T18:36:45;29.80;;;21.60;;
9819;SDS011;4949;48.482;9.206;2023-03-01T18:41:49;26.30;;;20.90;;
9819;SDS011;4949;48.482;9.206;2023-03-01T18:46:52;25.50;;;21.17;;
9819;SDS011;4949;48.482;9.206;2023-03-01T18:51:58;29.10;;;22.57;;
9819;SDS011;4949;48.482;9.206;2023-03-01T18:56:58;26.20;;;21.20;;
9819;SDS011;4949;48.482;9.206;2023-03-01T19:01:59;26.27;;;21.27;;
9819;SDS011;4949;48.482;9.206;2023-03-01T19:07:02;25.20;;;20.50;;
9819;SDS011;4949;48.482;9.206;2023-03-01T19:12:03;23.50;;;19.60;;
9819;SDS011;4949;48.482;9.206;2023-03-01T19:17:10;22.17;;;19.87;;
9819;SDS011;4949;48.482;9.206;2023-03-01T19:22:13;31.07;;;22.30;;
9819;SDS011;4949;48.482;9.206;2023-03-01T19:27:13;26.90;;;21.57;;
9819;SDS011;4949;48.482;9.206;2023-03-01T19:32:34;29.37;;;22.50;;
9819;SDS011;4949;48.482;9.206;2023-03-01T19:37:35;26.00;;;22.00;;
9819;SDS011;4949;48.482;9.206;2023-03-01T19:42:39;28.23;;;23.60;;
9819;SDS011;4949;48.482;9.206;2023-03-01T19:47:45;30.10;;;23.57;;
9819;SDS011;4949;48.482;9.206;2023-03-01T19:52:49;35.80;;;26.57;;
9819;SDS011;4949;48.482;9.206;2023-03-01T19:57:55;33.30;;;25.73;;
9819;SDS011;4949;48.482;9.206;2023-03-01T20:03:16;31.30;;;23.40;;
9819;SDS011;4949;48.482;9.206;2023-03-01T20:08:36;28.13;;;22.53;;
9819;SDS011;4949;48.482;9.206;2023-03-01T20:13:40;22.97;;;19.20;;
9819;SDS011;4949;48.482;9.206;2023-03-01T20:18:41;25.13;;;20.13;;
9819;SDS011;4949;48.482;9.206;2023-03-01T20:23:47;27.13;;;20.80;;
9819;SDS011;4949;48.482;9.206;2023-03-01T20:28:51;24.37;;;19.27;;
9819;SDS011;4949;48.482;9.206;2023-03-01T20:33:55;26.87;;;20.77;;
9819;SDS011;4949;48.482;9.206;2023-03-01T20:39:00;23.90;;;19.30;;
9819;SDS011;4949;48.482;9.206;2023-03-01T20:44:03;22.53;;;18.67;;
9819;SDS011;4949;48.482;9.206;2023-03-01T20:49:05;26.37;;;19.10;;
9819;SDS011;4949;48.482;9.206;2023-03-01T20:54:09;23.30;;;19.40;;
9819;SDS011;4949;48.482;9.206;2023-03-01T20:59:12;22.90;;;19.87;;
9819;SDS011;4949;48.482;9.206;2023-03-01T21:04:17;26.87;;;19.57;;
9819;SDS011;4949;48.482;9.206;2023-03-01T21:09:18;28.17;;;19.20;;
9819;SDS011;4949;48.482;9.206;2023-03-01T21:14:18;26.83;;;19.07;;
9819;SDS011;4949;48.482;9.206;2023-03-01T21:19:23;28.27;;;18.93;;
9819;SDS011;4949;48.482;9.206;2023-03-01T21:24:23;25.73;;;19.30;;
9819;SDS011;4949;48.482;9.206;2023-03-01T21:29:24;29.30;;;23.00;;
9819;SDS011;4949;48.482;9.206;2023-03-01T21:34:25;31.77;;;22.10;;
9819;SDS011;4949;48.482;9.206;2023-03-01T21:39:30;30.63;;;23.43;;
9819;SDS011;4949;48.482;9.206;2023-03-01T21:44:38;34.97;;;25.03;;
9819;SDS011;4949;48.482;9.206;2023-03-01T21:49:41;34.07;;;27.07;;
9819;SDS011;4949;48.482;9.206;2023-03-01T21:54:44;32.70;;;24.07;;
9819;SDS011;4949;48.482;9.206;2023-03-01T21:59:45;30.03;;;21.67;;
9819;SDS011;4949;48.482;9.206;2023-03-01T22:04:46;29.60;;;23.27;;
9819;SDS011;4949;48.482;9.206;2023-03-01T22:09:56;30.83;;;21.67;;
9819;SDS011;4949;48.482;9.206;2023-03-01T22:14:56;30.50;;;24.97;;
9819;SDS011;4949;48.482;9.206;2023-03-01T22:19:57;32.30;;;24.60;;
9819;SDS011;4949;48.482;9.206;2023-03-01T22:24:58;32.00;;;25.73;;
9819;SDS011;4949;48.482;9.206;2023-03-01T22:29:59;30.47;;;22.80;;
9819;SDS011;4949;48.482;9.206;2023-03-01T22:35:04;34.27;;;23.03;;
9819;SDS011;4949;48.482;9.206;2023-03-01T22:40:06;27.77;;;21.70;;
9819;SDS011;4949;48.482;9.206;2023-03-01T22:45:08;31.03;;;23.60;;
9819;SDS011;4949;48.482;9.206;2023-03-01T22:50:11;30.73;;;24.10;;
9819;SDS011;4949;48.482;9.206;2023-03-01T22:55:18;24.03;;;20.40;;
9819;SDS011;4949;48.482;9.206;2023-03-01T23:00:19;29.67;;;21.73;;
9819;SDS011;4949;48.482;9.206;2023-03-01T23:05:22;30.73;;;21.80;;
9819;SDS011;4949;48.482;9.206;2023-03-01T23:10:23;27.10;;;21.33;;
9819;SDS011;4949;48.482;9.206;2023-03-01T23:15:24;29.57;;;20.97;;
9819;SDS011;4949;48.482;9.206;2023-03-01T23:20:25;24.63;;;20.10;;
9819;SDS011;4949;48.482;9.206;2023-03-01T23:25:26;26.60;;;19.70;;
9819;SDS011;4949;48.482;9.206;2023-03-01T23:30:30;26.80;;;20.23;;
9819;SDS011;4949;48.482;9.206;2023-03-01T23:35:30;26.50;;;20.40;;
9819;SDS011;4949;48.482;9.206;2023-03-01T23:40:39;27.07;;;20.80;;
9819;SDS011;4949;48.482;9.206;2023-03-01T23:45:46;30.20;;;21.70;;
9819;SDS011;4949;48.482;9.206;2023-03-01T23:50:51;25.97;;;19.00;;
9819;SDS011;4949;48.482;9.206;2023-03-01T23:55:57;27.23;;;21.97;;
